Time;durP1;ratioP1;P1;durP2;ratioP2;P2;SDS_P1;SDS_P2;PMS_P1;PMS_P2;Temp;Humidity;BMP_temperature;BMP_pressure;BME280_temperature;BME280_humidity;BME280_pressure;Samples;Min_cycle;Max_cycle;Signal;HPM_P1;HPM_P2
2023/03/31 00:02:00;;;;;;;8.75;1.90;;;;;;;;;;4978018;28;92857;-80
2023/03/31 00:04:30;;;;;;;8.98;2.00;;;;;;;;;;4972229;28;92884;-79
2023/03/31 00:06:57;;;;;;;7.90;1.70;;;;;;;;;;4978625;28;93189;-79
2023/03/31 00:09:24;;;;;;;10.13;2.13;;;;;;;;;;4979009;28;93091;-79
2023/03/31 00:11:51;;;;;;;11.57;2.10;;;;;;;;;;4971990;28;93953;-80
2023/03/31 00:14:19;;;;;;;7.93;1.95;;;;;;;;;;4973413;28;93511;-80
2023/03/31 00:16:45;;;;;;;;;;;;;;;;;;4977016;28;91938;-80
2023/03/31 00:19:17;;;;;;;9.50;2.08;;;;;;;;;;4967729;28;109473;-80
2023/03/31 00:21:44;;;;;;;8.65;1.90;;;;;;;;;;4978753;28;93219;-80
2023/03/31 00:24:11;;;;;;;10.18;2.35;;;;;;;;;;4973734;28;94917;-79
2023/03/31 00:26:38;;;;;;;9.18;2.20;;;;;;;;;;4981451;28;95531;-79
2023/03/31 00:29:06;;;;;;;9.63;2.10;;;;;;;;;;4972416;28;92203;-78
2023/03/31 00:31:33;;;;;;;6.65;1.70;;;;;;;;;;4989497;28;93181;-81
2023/03/31 00:34:00;;;;;;;10.00;2.17;;;;;;;;;;4972304;28;94934;-79
2023/03/31 00:36:30;;;;;;;6.85;1.83;;;;;;;;;;4971290;28;94454;-78
2023/03/31 00:39:07;;;;;;;7.60;2.05;;;;;;;;;;4975274;28;92069;-78
2023/03/31 00:41:35;;;;;;;9.00;2.00;;;;;;;;;;4995454;28;97254;-80
2023/03/31 00:44:11;;;;;;;7.72;2.00;;;;;;;;;;5012435;28;92836;-80
2023/03/31 00:47:02;;;;;;;7.82;1.70;;;;;;;;;;4970969;28;94454;-81
2023/03/31 00:49:32;;;;;;;8.75;1.70;;;;;;;;;;4985857;28;102283;-80
2023/03/31 00:52:04;;;;;;;6.85;1.80;;;;;;;;;;4972734;28;92045;-80
2023/03/31 00:54:32;;;;;;;6.20;1.63;;;;;;;;;;4970067;28;94902;-80
2023/03/31 00:57:02;;;;;;;7.80;1.60;;;;;;;;;;4973952;28;92780;-80
2023/03/31 00:59:30;;;;;;;6.22;1.60;;;;;;;;;;4974382;28;93880;-81
2023/03/31 01:01:58;;;;;;;;;;;;;;;;;;4981302;28;92447;-80
2023/03/31 01:04:25;;;;;;;6.32;2.00;;;;;;;;;;4975739;28;98329;-80
2023/03/31 01:07:02;;;;;;;6.90;1.80;;;;;;;;;;4971102;28;91677;-82
2023/03/31 01:09:33;;;;;;;7.53;1.88;;;;;;;;;;4976574;28;97057;-80
2023/03/31 01:12:04;;;;;;;8.77;1.98;;;;;;;;;;5000720;28;92405;-80
2023/03/31 01:14:31;;;;;;;8.52;1.92;;;;;;;;;;4968198;28;94721;-81
2023/03/31 01:16:58;;;;;;;8.23;1.95;;;;;;;;;;4979494;28;94736;-81
2023/03/31 01:19:32;;;;;;;7.13;1.75;;;;;;;;;;4966731;28;92826;-81
2023/03/31 01:22:10;;;;;;;8.80;2.17;;;;;;;;;;4979903;28;93362;-81
2023/03/31 01:24:39;;;;;;;6.88;2.03;;;;;;;;;;4967991;28;92696;-81
2023/03/31 01:27:22;;;;;;;7.30;2.08;;;;;;;;;;5011967;28;92803;-80
2023/03/31 01:29:55;;;;;;;7.65;1.85;;;;;;;;;;4976815;28;92674;-81
2023/03/31 01:32:37;;;;;;;7.95;1.67;;;;;;;;;;4981801;28;91989;-81
2023/03/31 01:35:22;;;;;;;6.78;1.60;;;;;;;;;;4968962;28;92581;-80
2023/03/31 01:37:55;;;;;;;7.65;1.55;;;;;;;;;;4973425;28;92721;-81
2023/03/31 01:40:24;;;;;;;7.95;1.92;;;;;;;;;;4965870;28;95029;-80
2023/03/31 01:42:56;;;;;;;7.32;1.70;;;;;;;;;;4978255;28;94762;-80
2023/03/31 01:45:41;;;;;;;6.18;2.05;;;;;;;;;;4970546;28;92741;-80
2023/03/31 01:48:16;;;;;;;8.43;1.85;;;;;;;;;;4976883;28;92660;-80
2023/03/31 01:50:46;;;;;;;7.68;1.80;;;;;;;;;;4966344;28;94740;-80
2023/03/31 01:53:23;;;;;;;8.20;2.20;;;;;;;;;;4975960;28;92560;-79
2023/03/31 01:56:06;;;;;;;7.57;1.95;;;;;;;;;;4975328;28;92397;-80
2023/03/31 01:58:39;;;;;;;6.72;1.95;;;;;;;;;;4973401;28;93873;-79
2023/03/31 02:01:13;;;;;;;6.70;1.70;;;;;;;;;;5010802;28;92717;-79
2023/03/31 02:03:45;;;;;;;8.73;2.03;;;;;;;;;;4977987;28;92333;-79
2023/03/31 02:06:14;;;;;;;9.48;2.38;;;;;;;;;;5002337;28;97441;-79
2023/03/31 02:08:43;;;;;;;6.78;1.50;;;;;;;;;;4975331;28;92220;-79
2023/03/31 02:11:10;;;;;;;7.47;2.15;;;;;;;;;;4971227;28;95185;-79
2023/03/31 02:13:38;;;;;;;6.35;1.90;;;;;;;;;;4992500;28;94790;-79
2023/03/31 02:16:08;;;;;;;9.70;2.22;;;;;;;;;;4972170;28;92231;-80
2023/03/31 02:18:37;;;;;;;6.18;1.90;;;;;;;;;;4989372;28;94415;-79
2023/03/31 02:21:05;;;;;;;7.78;1.98;;;;;;;;;;4971277;28;92095;-79
2023/03/31 02:23:32;;;;;;;11.10;2.40;;;;;;;;;;4972525;28;92195;-79
2023/03/31 02:26:01;;;;;;;6.15;1.70;;;;;;;;;;4970078;28;92777;-80
2023/03/31 02:28:28;;;;;;;8.02;1.77;;;;;;;;;;4966734;28;92700;-79
2023/03/31 02:31:05;;;;;;;8.27;2.10;;;;;;;;;;4964288;28;94426;-80
2023/03/31 02:33:32;;;;;;;8.98;2.40;;;;;;;;;;4995325;28;98622;-80
2023/03/31 02:35:58;;;;;;;6.72;1.80;;;;;;;;;;4972759;28;91958;-80
2023/03/31 02:38:25;;;;;;;9.15;2.20;;;;;;;;;;4974507;28;92707;-80
2023/03/31 02:40:52;;;;;;;7.72;1.98;;;;;;;;;;4984218;28;92669;-79
2023/03/31 02:43:19;;;;;;;6.13;1.70;;;;;;;;;;4974345;28;92808;-79
2023/03/31 02:45:48;;;;;;;8.90;2.13;;;;;;;;;;4967656;28;94394;-79
2023/03/31 02:48:18;;;;;;;8.48;1.90;;;;;;;;;;4988031;28;91482;-80
2023/03/31 02:51:06;;;;;;;6.28;2.03;;;;;;;;;;4967986;28;92639;-80
2023/03/31 02:53:42;;;;;;;6.65;1.70;;;;;;;;;;4973268;28;100080;-80
2023/03/31 02:56:27;;;;;;;8.45;2.20;;;;;;;;;;4986700;28;94949;-80
2023/03/31 02:59:12;;;;;;;6.40;1.60;;;;;;;;;;4979444;28;94835;-80
2023/03/31 03:01:41;;;;;;;8.15;1.92;;;;;;;;;;4981956;28;92425;-80
2023/03/31 03:04:11;;;;;;;7.38;1.85;;;;;;;;;;4969308;28;95510;-80
2023/03/31 03:06:52;;;;;;;8.50;2.00;;;;;;;;;;4975705;28;93571;-81
2023/03/31 03:09:28;;;;;;;8.15;1.70;;;;;;;;;;4968480;28;92354;-80
2023/03/31 03:12:05;;;;;;;7.22;1.75;;;;;;;;;;4977814;28;92523;-80
2023/03/31 03:14:32;;;;;;;6.40;1.50;;;;;;;;;;4969243;28;93711;-80
2023/03/31 03:17:04;;;;;;;7.93;1.77;;;;;;;;;;4980282;28;92536;-80
2023/03/31 03:19:31;;;;;;;9.23;1.60;;;;;;;;;;4980833;28;97228;-80
2023/03/31 03:21:57;;;;;;;9.18;2.10;;;;;;;;;;4968093;28;96226;-81
2023/03/31 03:24:28;;;;;;;7.30;1.58;;;;;;;;;;4968623;28;94763;-81
2023/03/31 03:26:54;;;;;;;7.85;1.73;;;;;;;;;;4978126;28;92826;-81
2023/03/31 03:29:21;;;;;;;8.55;1.77;;;;;;;;;;4971499;28;92202;-80
2023/03/31 03:31:47;;;;;;;5.45;1.48;;;;;;;;;;4982171;28;92491;-81
2023/03/31 03:34:15;;;;;;;7.10;1.80;;;;;;;;;;5007208;28;92849;-80
2023/03/31 03:36:41;;;;;;;4.18;1.40;;;;;;;;;;4972608;28;92255;-81
2023/03/31 03:39:08;;;;;;;8.85;1.63;;;;;;;;;;4977032;28;92430;-79
2023/03/31 03:41:34;;;;;;;6.93;1.80;;;;;;;;;;4973763;28;92728;-80
2023/03/31 03:44:01;;;;;;;9.25;1.63;;;;;;;;;;4979788;28;92432;-80
2023/03/31 03:46:27;;;;;;;5.55;1.58;;;;;;;;;;4973182;28;95244;-79
2023/03/31 03:48:54;;;;;;;8.18;1.60;;;;;;;;;;4975936;28;92189;-80
2023/03/31 03:51:21;;;;;;;7.63;1.70;;;;;;;;;;4972022;28;93951;-79
2023/03/31 03:53:47;;;;;;;8.63;1.80;;;;;;;;;;4970162;28;92735;-79
2023/03/31 03:56:14;;;;;;;6.10;1.50;;;;;;;;;;4970757;28;92474;-79
2023/03/31 03:58:40;;;;;;;5.35;1.27;;;;;;;;;;4967806;28;92670;-79
2023/03/31 04:01:07;;;;;;;5.35;1.52;;;;;;;;;;4974571;28;92710;-78
2023/03/31 04:03:33;;;;;;;6.85;1.80;;;;;;;;;;4970494;28;91501;-79
2023/03/31 04:05:59;;;;;;;7.28;1.70;;;;;;;;;;4973713;28;92482;-79
2023/03/31 04:08:26;;;;;;;6.07;1.38;;;;;;;;;;4981545;28;92594;-78
2023/03/31 04:10:52;;;;;;;5.63;1.58;;;;;;;;;;4972928;28;94872;-79
2023/03/31 04:13:19;;;;;;;7.78;1.70;;;;;;;;;;4981699;28;93351;-79
2023/03/31 04:15:46;;;;;;;6.60;1.50;;;;;;;;;;4991606;28;92107;-79
2023/03/31 04:18:21;;;;;;;7.10;1.58;;;;;;;;;;4971629;28;97458;-78
2023/03/31 04:21:04;;;;;;;8.60;1.50;;;;;;;;;;4992153;28;95674;-78
2023/03/31 04:23:31;;;;;;;7.35;1.67;;;;;;;;;;4974723;28;92565;-78
2023/03/31 04:25:58;;;;;;;10.15;1.85;;;;;;;;;;4977982;28;92934;-79
2023/03/31 04:28:33;;;;;;;5.57;1.38;;;;;;;;;;4981344;28;91386;-79
2023/03/31 04:31:01;;;;;;;6.65;1.45;;;;;;;;;;4975369;28;92124;-79
2023/03/31 04:33:28;;;;;;;5.88;1.40;;;;;;;;;;4973867;28;97139;-78
2023/03/31 04:35:54;;;;;;;9.13;1.50;;;;;;;;;;4974555;28;95023;-79
2023/03/31 04:38:22;;;;;;;7.72;1.40;;;;;;;;;;4968837;28;95073;-79
2023/03/31 04:40:50;;;;;;;5.78;1.58;;;;;;;;;;4970744;28;92710;-79
2023/03/31 04:43:17;;;;;;;4.32;1.20;;;;;;;;;;4974933;28;92314;-79
2023/03/31 04:45:44;;;;;;;6.13;1.40;;;;;;;;;;4975489;28;92491;-80
2023/03/31 04:48:10;;;;;;;6.38;1.70;;;;;;;;;;4974799;28;93309;-80
2023/03/31 04:50:37;;;;;;;4.57;1.42;;;;;;;;;;4977398;28;92343;-80
2023/03/31 04:53:04;;;;;;;4.57;1.42;;;;;;;;;;4976764;28;92117;-80
2023/03/31 04:55:31;;;;;;;8.15;1.60;;;;;;;;;;4976161;28;92464;-81
2023/03/31 04:57:57;;;;;;;4.00;1.40;;;;;;;;;;4967729;28;93787;-81
2023/03/31 05:00:25;;;;;;;6.00;1.38;;;;;;;;;;4973180;28;95827;-81
2023/03/31 05:02:52;;;;;;;6.28;1.92;;;;;;;;;;4974059;28;92261;-81
2023/03/31 05:05:18;;;;;;;3.60;1.38;;;;;;;;;;5004028;28;92850;-80
2023/03/31 05:07:45;;;;;;;3.58;1.23;;;;;;;;;;4973951;28;92722;-80
2023/03/31 05:10:11;;;;;;;4.85;1.60;;;;;;;;;;4975679;28;92209;-81
2023/03/31 05:12:38;;;;;;;5.30;1.67;;;;;;;;;;4965729;28;94470;-80
2023/03/31 05:15:06;;;;;;;6.03;1.27;;;;;;;;;;4977415;28;92562;-80
2023/03/31 05:17:33;;;;;;;6.13;1.42;;;;;;;;;;4975711;28;94090;-81
2023/03/31 05:20:00;;;;;;;6.28;1.30;;;;;;;;;;4973789;28;94216;-80
2023/03/31 05:22:26;;;;;;;6.57;1.70;;;;;;;;;;4969042;28;92608;-80
2023/03/31 05:24:53;;;;;;;7.55;1.52;;;;;;;;;;4964715;28;94688;-80
2023/03/31 05:27:22;;;;;;;7.22;1.58;;;;;;;;;;4970312;28;92785;-80
2023/03/31 05:29:49;;;;;;;7.68;1.60;;;;;;;;;;4976520;28;92623;-80
2023/03/31 05:32:16;;;;;;;5.47;1.48;;;;;;;;;;4973499;28;92888;-79
2023/03/31 05:34:42;;;;;;;6.00;1.48;;;;;;;;;;4976924;28;92454;-79
2023/03/31 05:37:09;;;;;;;5.00;1.30;;;;;;;;;;4971864;28;92572;-78
2023/03/31 05:39:35;;;;;;;6.38;1.85;;;;;;;;;;4974384;28;92785;-80
2023/03/31 05:42:04;;;;;;;8.05;1.63;;;;;;;;;;4970038;28;91956;-80
2023/03/31 05:44:30;;;;;;;5.97;1.40;;;;;;;;;;4965609;28;91955;-80
2023/03/31 05:46:57;;;;;;;6.35;1.60;;;;;;;;;;4987444;28;93019;-80
2023/03/31 05:49:23;;;;;;;5.10;1.55;;;;;;;;;;4976597;28;94567;-79
2023/03/31 05:51:50;;;;;;;5.57;1.45;;;;;;;;;;4992115;28;94797;-79
2023/03/31 05:54:17;;;;;;;6.53;1.55;;;;;;;;;;4980124;28;92749;-79
2023/03/31 05:56:43;;;;;;;7.32;1.67;;;;;;;;;;4974526;28;92756;-79
2023/03/31 05:59:10;;;;;;;5.15;1.50;;;;;;;;;;4970513;28;93588;-78
2023/03/31 06:01:36;;;;;;;6.00;1.40;;;;;;;;;;5005988;28;93706;-78
2023/03/31 06:04:03;;;;;;;6.15;1.60;;;;;;;;;;4966966;28;92534;-78
2023/03/31 06:06:32;;;;;;;6.18;1.35;;;;;;;;;;4977280;28;91802;-78
2023/03/31 06:09:00;;;;;;;6.93;1.40;;;;;;;;;;4994658;28;92137;-79
2023/03/31 06:11:27;;;;;;;6.80;1.80;;;;;;;;;;4973420;28;93241;-81
2023/03/31 06:13:53;;;;;;;6.15;1.25;;;;;;;;;;4966263;28;95028;-80
2023/03/31 06:16:20;;;;;;;5.72;1.25;;;;;;;;;;4979101;28;93346;-81
2023/03/31 06:18:47;;;;;;;4.50;1.08;;;;;;;;;;4984149;28;93091;-79
2023/03/31 06:21:18;;;;;;;7.35;1.15;;;;;;;;;;4976244;28;92111;-78
2023/03/31 06:23:44;;;;;;;7.18;1.80;;;;;;;;;;4985380;28;92487;-79
2023/03/31 06:26:15;;;;;;;6.82;1.52;;;;;;;;;;4977110;28;92699;-79
2023/03/31 06:28:42;;;;;;;7.75;1.40;;;;;;;;;;4970883;28;92239;-79
2023/03/31 06:31:13;;;;;;;4.30;1.35;;;;;;;;;;4972496;28;91816;-79
2023/03/31 06:33:41;;;;;;;3.95;1.30;;;;;;;;;;4981793;28;92504;-80
2023/03/31 06:36:07;;;;;;;6.00;1.40;;;;;;;;;;4978004;28;92359;-80
2023/03/31 06:38:35;;;;;;;3.88;1.00;;;;;;;;;;5000825;28;95042;-79
2023/03/31 06:41:01;;;;;;;4.57;1.20;;;;;;;;;;4987030;28;92282;-80
2023/03/31 06:43:28;;;;;;;4.43;1.20;;;;;;;;;;4967398;28;96509;-79
2023/03/31 06:45:55;;;;;;;6.32;1.35;;;;;;;;;;4969865;28;93751;-80
2023/03/31 06:48:22;;;;;;;4.95;1.10;;;;;;;;;;4977933;28;92361;-79
2023/03/31 06:50:48;;;;;;;4.75;1.25;;;;;;;;;;4977204;28;92504;-80
2023/03/31 06:53:15;;;;;;;5.22;1.23;;;;;;;;;;4985062;28;93101;-80
2023/03/31 06:55:42;;;;;;;6.85;1.20;;;;;;;;;;5009567;28;91883;-79
2023/03/31 06:58:08;;;;;;;5.55;1.20;;;;;;;;;;4974224;28;92446;-80
2023/03/31 07:00:35;;;;;;;5.30;1.33;;;;;;;;;;4965552;28;92236;-79
2023/03/31 07:03:02;;;;;;;3.47;1.08;;;;;;;;;;4970643;28;95614;-80
2023/03/31 07:05:30;;;;;;;3.78;1.17;;;;;;;;;;4972335;28;97613;-79
2023/03/31 07:07:57;;;;;;;3.80;1.20;;;;;;;;;;5005809;28;92055;-79
2023/03/31 07:10:25;;;;;;;3.63;1.10;;;;;;;;;;4981596;28;92388;-79
2023/03/31 07:12:51;;;;;;;4.68;1.10;;;;;;;;;;4976978;28;92738;-80
2023/03/31 07:15:18;;;;;;;4.15;1.10;;;;;;;;;;4982099;28;92384;-80
2023/03/31 07:17:45;;;;;;;4.15;1.23;;;;;;;;;;4966128;28;92765;-80
2023/03/31 07:20:13;;;;;;;4.15;1.20;;;;;;;;;;4974403;28;92050;-81
2023/03/31 07:22:40;;;;;;;6.53;1.45;;;;;;;;;;4982253;28;92070;-82
2023/03/31 07:25:08;;;;;;;6.25;1.13;;;;;;;;;;4973723;28;92837;-81
2023/03/31 07:27:34;;;;;;;4.75;1.52;;;;;;;;;;4970139;28;95153;-82
2023/03/31 07:30:01;;;;;;;4.80;1.40;;;;;;;;;;4972627;28;96872;-81
2023/03/31 07:32:28;;;;;;;9.60;2.13;;;;;;;;;;4982060;28;93714;-81
2023/03/31 07:34:55;;;;;;;3.47;1.13;;;;;;;;;;4973371;28;92413;-80
2023/03/31 07:37:21;;;;;;;8.05;1.40;;;;;;;;;;4992212;28;92646;-81
2023/03/31 07:39:47;;;;;;;3.45;1.17;;;;;;;;;;4973463;28;93656;-81
2023/03/31 07:42:14;;;;;;;9.50;1.10;;;;;;;;;;4975927;28;92373;-81
2023/03/31 07:44:40;;;;;;;5.22;0.98;;;;;;;;;;4977820;28;93201;-81
2023/03/31 07:47:07;;;;;;;4.63;1.10;;;;;;;;;;5002801;28;92308;-80
2023/03/31 07:49:34;;;;;;;6.05;1.08;;;;;;;;;;4978608;28;92568;-81
2023/03/31 07:52:01;;;;;;;5.75;1.20;;;;;;;;;;4966233;28;95945;-81
2023/03/31 07:54:27;;;;;;;4.30;1.20;;;;;;;;;;4961025;28;93874;-80
2023/03/31 07:56:54;;;;;;;5.78;1.20;;;;;;;;;;4964339;28;93111;-81
2023/03/31 07:59:20;;;;;;;5.45;0.98;;;;;;;;;;4972956;28;92741;-81
2023/03/31 08:01:47;;;;;;;5.82;1.10;;;;;;;;;;4984740;28;92609;-81
2023/03/31 08:04:14;;;;;;;4.75;1.13;;;;;;;;;;4979590;28;93128;-81
2023/03/31 08:06:41;;;;;;;4.82;1.23;;;;;;;;;;4976293;28;92518;-81
2023/03/31 08:09:07;;;;;;;3.13;0.93;;;;;;;;;;4976011;28;91932;-81
2023/03/31 08:11:34;;;;;;;3.33;1.05;;;;;;;;;;4973369;28;93116;-81
2023/03/31 08:14:00;;;;;;;4.38;1.20;;;;;;;;;;4970774;28;93466;-81
2023/03/31 08:16:27;;;;;;;4.38;1.00;;;;;;;;;;4975676;28;95222;-81
2023/03/31 08:18:54;;;;;;;3.90;1.00;;;;;;;;;;4976673;28;94859;-81
2023/03/31 08:21:20;;;;;;;2.78;0.90;;;;;;;;;;4994456;28;93059;-81
2023/03/31 08:23:52;;;;;;;4.68;1.10;;;;;;;;;;4974069;28;93474;-80
2023/03/31 08:26:18;;;;;;;3.55;1.10;;;;;;;;;;4976224;28;92672;-80
2023/03/31 08:28:47;;;;;;;3.08;0.90;;;;;;;;;;4966654;28;93189;-83
2023/03/31 08:31:15;;;;;;;1.80;0.70;;;;;;;;;;4979030;28;92829;-80
2023/03/31 08:33:41;;;;;;;3.63;1.00;;;;;;;;;;4978979;28;92046;-82
2023/03/31 08:36:09;;;;;;;5.30;1.10;;;;;;;;;;4980563;28;92244;-79
2023/03/31 08:38:37;;;;;;;7.18;1.20;;;;;;;;;;4977010;28;94194;-82
2023/03/31 08:41:06;;;;;;;3.80;1.10;;;;;;;;;;4983550;28;95175;-79
2023/03/31 08:43:35;;;;;;;5.32;0.98;;;;;;;;;;4978200;28;95670;-82
2023/03/31 08:46:03;;;;;;;4.82;1.10;;;;;;;;;;4981907;28;93715;-82
2023/03/31 08:48:37;;;;;;;3.05;1.00;;;;;;;;;;4976577;28;92667;-82
2023/03/31 08:51:09;;;;;;;2.85;1.00;;;;;;;;;;4987942;28;92766;-80
2023/03/31 08:53:38;;;;;;;8.50;1.33;;;;;;;;;;4991745;28;92445;-82
2023/03/31 08:56:06;;;;;;;3.72;1.05;;;;;;;;;;4976277;28;93111;-82
2023/03/31 08:58:33;;;;;;;2.03;0.82;;;;;;;;;;4960054;28;92182;-82
2023/03/31 09:01:07;;;;;;;4.45;1.00;;;;;;;;;;4981321;28;93155;-82
2023/03/31 09:03:45;;;;;;;5.60;1.00;;;;;;;;;;5011328;28;97191;-82
2023/03/31 09:06:20;;;;;;;5.43;1.40;;;;;;;;;;4981862;28;97666;-83
2023/03/31 09:08:47;;;;;;;4.00;1.20;;;;;;;;;;4983499;28;92319;-82
2023/03/31 09:11:25;;;;;;;4.15;1.10;;;;;;;;;;4989957;28;92727;-82
2023/03/31 09:14:06;;;;;;;4.20;1.23;;;;;;;;;;4979194;28;92116;-82
2023/03/31 09:16:35;;;;;;;5.28;1.10;;;;;;;;;;5022388;28;95168;-81
2023/03/31 09:19:02;;;;;;;4.68;1.00;;;;;;;;;;4967903;28;93151;-82
2023/03/31 09:21:39;;;;;;;7.45;1.42;;;;;;;;;;4998186;28;96190;-82
2023/03/31 09:24:11;;;;;;;3.55;0.90;;;;;;;;;;4963332;28;93429;-82
2023/03/31 09:26:41;;;;;;;5.15;1.00;;;;;;;;;;4984705;28;95138;-83
2023/03/31 09:29:19;;;;;;;3.22;1.08;;;;;;;;;;4967199;28;92291;-83
2023/03/31 09:31:46;;;;;;;5.35;1.13;;;;;;;;;;4973876;28;95257;-84
2023/03/31 09:34:20;;;;;;;3.78;1.20;;;;;;;;;;4989034;28;92454;-84
2023/03/31 09:36:47;;;;;;;5.30;1.30;;;;;;;;;;4988657;28;92793;-84
2023/03/31 09:39:14;;;;;;;3.33;1.10;;;;;;;;;;4961364;28;92795;-84
2023/03/31 09:41:42;;;;;;;3.83;1.20;;;;;;;;;;4960005;28;92218;-84
2023/03/31 09:44:18;;;;;;;5.25;1.20;;;;;;;;;;4958376;28;93280;-84
2023/03/31 09:46:45;;;;;;;4.38;1.23;;;;;;;;;;4973757;28;93373;-83
2023/03/31 09:49:15;;;;;;;5.85;1.17;;;;;;;;;;4978083;28;92631;-83
2023/03/31 09:51:44;;;;;;;4.63;1.20;;;;;;;;;;4997479;28;94342;-84
2023/03/31 09:54:30;;;;;;;4.88;1.23;;;;;;;;;;4996539;28;92815;-83
2023/03/31 09:56:56;;;;;;;4.43;1.30;;;;;;;;;;4989827;28;95440;-82
2023/03/31 09:59:31;;;;;;;4.78;1.25;;;;;;;;;;4979101;28;92672;-81
2023/03/31 10:02:01;;;;;;;4.30;1.08;;;;;;;;;;4973739;28;92142;-83
2023/03/31 10:04:30;;;;;;;5.20;1.10;;;;;;;;;;4972332;28;92836;-81
2023/03/31 10:06:57;;;;;;;3.65;1.08;;;;;;;;;;4977844;28;93200;-80
2023/03/31 10:09:26;;;;;;;3.92;1.30;;;;;;;;;;4978570;28;92684;-81
2023/03/31 10:11:58;;;;;;;5.22;1.23;;;;;;;;;;4985948;28;92406;-81
2023/03/31 10:14:26;;;;;;;4.65;1.48;;;;;;;;;;4979991;28;92039;-81
2023/03/31 10:16:54;;;;;;;5.68;1.50;;;;;;;;;;4984806;28;92532;-81
2023/03/31 10:19:25;;;;;;;4.68;1.25;;;;;;;;;;4975978;28;95910;-81
2023/03/31 10:22:24;;;;;;;8.23;1.60;;;;;;;;;;4976673;28;94634;-81
2023/03/31 10:24:51;;;;;;;4.90;1.50;;;;;;;;;;4943099;28;95590;-81
2023/03/31 10:27:17;;;;;;;;;;;;;;;;;;4972414;28;94581;-80
2023/03/31 10:29:45;;;;;;;5.88;1.55;;;;;;;;;;4984594;28;107105;-81
2023/03/31 10:32:19;;;;;;;4.55;1.45;;;;;;;;;;4994127;28;93004;-81
2023/03/31 10:34:45;;;;;;;7.07;1.40;;;;;;;;;;4977676;28;93908;-80
2023/03/31 10:37:16;;;;;;;3.03;1.02;;;;;;;;;;4985044;28;92241;-80
2023/03/31 10:39:44;;;;;;;4.75;1.40;;;;;;;;;;4972321;28;92966;-79
2023/03/31 10:42:17;;;;;;;5.43;1.25;;;;;;;;;;4980356;28;94019;-79
2023/03/31 10:44:44;;;;;;;5.53;1.58;;;;;;;;;;4971131;28;95295;-79
2023/03/31 10:47:18;;;;;;;5.95;1.30;;;;;;;;;;4981451;28;95278;-80
2023/03/31 10:49:46;;;;;;;6.10;1.35;;;;;;;;;;4983541;28;92338;-80
2023/03/31 10:52:20;;;;;;;6.18;1.58;;;;;;;;;;4980636;28;92435;-79
2023/03/31 10:55:07;;;;;;;4.03;1.27;;;;;;;;;;4980106;28;92633;-80
2023/03/31 10:57:43;;;;;;;7.60;1.40;;;;;;;;;;4980764;28;92265;-82
2023/03/31 11:00:13;;;;;;;6.68;1.38;;;;;;;;;;4977808;28;93694;-82
2023/03/31 11:03:12;;;;;;;4.40;1.38;;;;;;;;;;4982941;28;92213;-81
2023/03/31 11:05:45;;;;;;;5.78;1.60;;;;;;;;;;4945132;28;97281;-81
2023/03/31 11:08:14;;;;;;;6.05;1.33;;;;;;;;;;4980199;28;95618;-81
2023/03/31 11:11:02;;;;;;;4.95;1.15;;;;;;;;;;4987679;28;92392;-80
2023/03/31 11:13:31;;;;;;;;;;;;;;;;;;4973381;28;96987;-82
2023/03/31 11:15:57;;;;;;;4.63;1.40;;;;;;;;;;5009142;28;112026;-80
2023/03/31 11:18:39;;;;;;;5.28;1.30;;;;;;;;;;4991437;28;92378;-81
2023/03/31 11:21:12;;;;;;;4.93;1.30;;;;;;;;;;4986463;28;95298;-80
2023/03/31 11:23:44;;;;;;;6.68;1.50;;;;;;;;;;4984009;28;92690;-81
2023/03/31 11:26:17;;;;;;;5.90;1.50;;;;;;;;;;4978096;28;94767;-80
2023/03/31 11:28:50;;;;;;;4.65;1.20;;;;;;;;;;4961831;28;92635;-80
2023/03/31 11:31:27;;;;;;;4.90;1.30;;;;;;;;;;4977544;28;91507;-79
2023/03/31 11:34:03;;;;;;;6.90;1.65;;;;;;;;;;4991622;28;94579;-80
2023/03/31 11:36:35;;;;;;;6.25;1.60;;;;;;;;;;4985807;28;93632;-82
2023/03/31 11:39:11;;;;;;;4.18;1.23;;;;;;;;;;4973539;28;94618;-83
2023/03/31 11:41:41;;;;;;;4.32;1.15;;;;;;;;;;5000392;28;99939;-83
2023/03/31 11:44:12;;;;;;;5.78;1.38;;;;;;;;;;4994883;28;95342;-82
2023/03/31 11:46:38;;;;;;;5.90;1.35;;;;;;;;;;4984726;28;92724;-81
2023/03/31 11:49:20;;;;;;;5.97;1.48;;;;;;;;;;4974546;28;95704;-81
2023/03/31 11:51:50;;;;;;;5.13;1.20;;;;;;;;;;4960309;28;92486;-82
2023/03/31 11:54:22;;;;;;;6.43;1.58;;;;;;;;;;4971066;28;92386;-82
2023/03/31 11:56:49;;;;;;;6.35;1.48;;;;;;;;;;4982987;28;93828;-82
2023/03/31 11:59:18;;;;;;;6.32;1.40;;;;;;;;;;4980515;28;92059;-79
2023/03/31 12:01:49;;;;;;;5.00;1.35;;;;;;;;;;4971675;28;92820;-80
2023/03/31 12:04:24;;;;;;;5.90;1.50;;;;;;;;;;4983495;28;97709;-80
2023/03/31 12:06:51;;;;;;;5.90;1.20;;;;;;;;;;4980959;28;92337;-80
2023/03/31 12:09:28;;;;;;;9.38;1.42;;;;;;;;;;4972098;28;94385;-79
2023/03/31 12:12:01;;;;;;;4.30;1.05;;;;;;;;;;4976576;28;92820;-79
2023/03/31 12:14:36;;;;;;;5.47;1.40;;;;;;;;;;4969155;28;94360;-79
2023/03/31 12:17:13;;;;;;;5.07;1.35;;;;;;;;;;4979392;28;92687;-78
2023/03/31 12:19:40;;;;;;;5.60;1.27;;;;;;;;;;4979568;28;92311;-79
2023/03/31 12:22:12;;;;;;;7.18;1.33;;;;;;;;;;4975273;28;93060;-79
2023/03/31 12:24:39;;;;;;;7.00;1.70;;;;;;;;;;4973048;28;94130;-79
2023/03/31 12:27:20;;;;;;;6.97;1.65;;;;;;;;;;4975308;28;93485;-78
2023/03/31 12:29:50;;;;;;;4.65;1.40;;;;;;;;;;4976540;28;95200;-79
2023/03/31 12:32:18;;;;;;;4.63;1.30;;;;;;;;;;4978111;28;93294;-79
2023/03/31 12:34:53;;;;;;;5.35;1.55;;;;;;;;;;4972876;28;94566;-79
2023/03/31 12:37:20;;;;;;;4.93;1.40;;;;;;;;;;4976346;28;94252;-80
2023/03/31 12:39:53;;;;;;;5.65;1.40;;;;;;;;;;4977373;28;92555;-80
2023/03/31 12:42:39;;;;;;;5.68;1.60;;;;;;;;;;4978322;28;92341;-79
2023/03/31 12:45:18;;;;;;;4.78;1.30;;;;;;;;;;4982401;28;93258;-79
2023/03/31 12:47:44;;;;;;;5.00;1.30;;;;;;;;;;4970871;28;91571;-79
2023/03/31 12:50:14;;;;;;;5.88;1.55;;;;;;;;;;4974183;28;92251;-80
2023/03/31 12:52:59;;;;;;;4.78;1.33;;;;;;;;;;4970747;28;95115;-80
2023/03/31 12:55:34;;;;;;;5.72;1.67;;;;;;;;;;4975134;28;94775;-79
2023/03/31 12:58:21;;;;;;;4.35;1.20;;;;;;;;;;4975923;28;94755;-80
2023/03/31 13:01:00;;;;;;;4.35;1.10;;;;;;;;;;4978332;28;92568;-80
2023/03/31 13:03:36;;;;;;;6.70;1.50;;;;;;;;;;4991448;28;94807;-80
2023/03/31 13:06:04;;;;;;;5.75;1.17;;;;;;;;;;4983593;28;93734;-80
2023/03/31 13:08:49;;;;;;;6.30;1.50;;;;;;;;;;4974456;28;92998;-80
2023/03/31 13:11:16;;;;;;;5.22;1.38;;;;;;;;;;4976938;28;92416;-79
2023/03/31 13:13:43;;;;;;;;;;;;;;;;;;4973210;28;94954;-79
2023/03/31 13:16:23;;;;;;;5.25;1.38;;;;;;;;;;4987629;28;109906;-79
2023/03/31 13:18:53;;;;;;;4.55;1.40;;;;;;;;;;4991238;28;95655;-80
2023/03/31 13:21:20;;;;;;;5.75;1.40;;;;;;;;;;4975151;28;94912;-79
2023/03/31 13:23:47;;;;;;;6.18;1.90;;;;;;;;;;4976832;28;94690;-80
2023/03/31 13:26:31;;;;;;;7.13;1.67;;;;;;;;;;4981507;28;92766;-79
2023/03/31 13:29:13;;;;;;;4.90;1.38;;;;;;;;;;5010575;28;92392;-80
2023/03/31 13:32:09;;;;;;;5.25;1.38;;;;;;;;;;4996759;28;99510;-80
2023/03/31 13:34:42;;;;;;;4.00;1.15;;;;;;;;;;4964979;28;93513;-79
2023/03/31 13:37:15;;;;;;;5.07;1.42;;;;;;;;;;4977704;28;92235;-79
2023/03/31 13:39:55;;;;;;;6.95;1.77;;;;;;;;;;4983156;28;92243;-79
2023/03/31 13:42:31;;;;;;;4.43;1.38;;;;;;;;;;4977661;28;92235;-79
2023/03/31 13:45:06;;;;;;;5.18;1.25;;;;;;;;;;4972725;28;95105;-80
2023/03/31 13:47:33;;;;;;;5.90;1.50;;;;;;;;;;4970537;28;99391;-80
2023/03/31 13:50:11;;;;;;;5.43;1.55;;;;;;;;;;4971817;28;92348;-79
2023/03/31 13:52:46;;;;;;;6.05;1.60;;;;;;;;;;4971759;28;92491;-81
2023/03/31 13:55:31;;;;;;;4.43;1.27;;;;;;;;;;4970237;28;95111;-78
2023/03/31 13:58:19;;;;;;;5.95;1.48;;;;;;;;;;4975699;28;92871;-79
2023/03/31 14:01:00;;;;;;;5.63;1.50;;;;;;;;;;4975477;28;92534;-79
2023/03/31 14:03:44;;;;;;;6.88;1.45;;;;;;;;;;4995957;28;97248;-79
2023/03/31 14:06:19;;;;;;;5.20;1.48;;;;;;;;;;4993686;28;95208;-79
2023/03/31 14:08:50;;;;;;;4.53;1.35;;;;;;;;;;4978124;28;92525;-78
2023/03/31 14:11:21;;;;;;;6.25;1.40;;;;;;;;;;4975932;28;92312;-78
2023/03/31 14:13:58;;;;;;;5.13;1.20;;;;;;;;;;4977139;28;95916;-79
2023/03/31 14:16:25;;;;;;;5.53;1.50;;;;;;;;;;4976126;28;92395;-78
2023/03/31 14:18:51;;;;;;;;;;;;;;;;;;4979230;28;92040;-80
2023/03/31 14:21:19;;;;;;;6.55;1.42;;;;;;;;;;4979237;28;111790;-79
2023/03/31 14:23:53;;;;;;;3.90;1.33;;;;;;;;;;4977660;28;92713;-79
2023/03/31 14:26:38;;;;;;;6.60;1.40;;;;;;;;;;4981449;28;92291;-79
2023/03/31 14:29:11;;;;;;;5.35;1.30;;;;;;;;;;4990677;28;95128;-79
2023/03/31 14:31:47;;;;;;;7.20;1.30;;;;;;;;;;4978968;28;91513;-79
2023/03/31 14:34:23;;;;;;;4.03;1.27;;;;;;;;;;4977496;28;94613;-79
2023/03/31 14:37:03;;;;;;;5.90;1.20;;;;;;;;;;4977866;28;92104;-79
2023/03/31 14:39:51;;;;;;;5.85;1.58;;;;;;;;;;4974686;28;95513;-79
2023/03/31 14:42:20;;;;;;;4.68;1.17;;;;;;;;;;4976870;28;95180;-79
2023/03/31 14:44:47;;;;;;;4.85;1.50;;;;;;;;;;4976900;28;92763;-79
2023/03/31 14:47:15;;;;;;;5.45;1.58;;;;;;;;;;5008395;28;92354;-78
2023/03/31 14:49:42;;;;;;;4.15;1.30;;;;;;;;;;4980194;28;92414;-80
2023/03/31 14:52:18;;;;;;;4.63;1.30;;;;;;;;;;4978865;28;92668;-79
2023/03/31 14:54:46;;;;;;;5.10;1.60;;;;;;;;;;4978799;28;92555;-80
2023/03/31 14:57:15;;;;;;;4.15;1.40;;;;;;;;;;5004589;28;94324;-79
2023/03/31 14:59:42;;;;;;;3.92;1.23;;;;;;;;;;4970391;28;92585;-79
2023/03/31 15:02:12;;;;;;;3.85;1.40;;;;;;;;;;4978590;28;92476;-80
2023/03/31 15:04:43;;;;;;;4.63;1.10;;;;;;;;;;4977087;28;96288;-79